Time;durP1;ratioP1;P1;durP2;ratioP2;P2;SDS_P1;SDS_P2;PMS_P1;PMS_P2;Temp;Humidity;BMP_temperature;BMP_pressure;BME280_temperature;BME280_humidity;BME280_pressure;Samples;Min_cycle;Max_cycle;Signal;HPM_P1;HPM_P2
2022/07/25 06:01:51;;;;;;;;;4.00;4.00;;;;;24.05;54.97;100894.19;5058646;27;45399;-77
2022/07/25 06:04:16;;;;;;;;;4.33;3.00;;;;;24.17;54.90;100897.47;5039393;28;45882;-85
2022/07/25 06:06:41;;;;;;;;;4.00;4.00;;;;;24.38;55.12;100907.78;5045270;28;45459;-86
2022/07/25 06:09:07;;;;;;;;;1.67;1.67;;;;;24.60;54.32;100903.53;5045268;28;45657;-87
2022/07/25 06:11:33;;;;;;;;;4.00;2.67;;;;;24.91;54.33;100911.97;5039055;28;46266;-85
2022/07/25 06:13:58;;;;;;;;;4.00;3.67;;;;;25.21;53.52;100923.06;5040298;28;45546;-88
2022/07/25 06:16:23;;;;;;;;;3.00;2.00;;;;;25.51;52.91;100923.31;5039199;28;45652;-87
2022/07/25 06:18:49;;;;;;;;;4.67;4.67;;;;;25.79;51.78;100922.84;5040756;28;45493;-84
2022/07/25 06:21:14;;;;;;;;;5.00;4.00;;;;;26.09;51.48;100928.41;5037021;28;46153;-85
2022/07/25 06:23:40;;;;;;;;;3.00;3.00;;;;;26.37;51.18;100924.31;5043396;28;45611;-84
2022/07/25 06:26:09;;;;;;;;;3.00;3.00;;;;;26.59;50.96;100922.56;5038272;28;45540;-85
2022/07/25 06:28:36;;;;;;;;;2.00;2.00;;;;;26.84;49.87;100925.03;5035459;28;47555;-85
2022/07/25 06:31:01;;;;;;;;;2.33;2.33;;;;;27.08;50.24;100931.28;5035735;28;47243;-83
2022/07/25 06:33:27;;;;;;;;;3.00;3.00;;;;;27.28;48.96;100934.28;5038159;28;45506;-81
2022/07/25 06:35:52;;;;;;;;;4.00;4.00;;;;;27.47;48.84;100940.19;5042375;28;45400;-81
2022/07/25 06:38:18;;;;;;;;;3.00;3.00;;;;;27.61;47.72;100942.06;5038100;28;45618;-80
2022/07/25 06:40:43;;;;;;;;;2.00;2.00;;;;;27.77;48.08;100942.00;5042426;28;45993;-79
2022/07/25 06:43:08;;;;;;;;;3.00;3.00;;;;;27.88;48.10;100942.34;5038584;28;45482;-80
2022/07/25 06:45:34;;;;;;;;;3.00;3.00;;;;;28.01;48.81;100944.38;5035897;28;45876;-81
2022/07/25 06:47:59;;;;;;;;;5.00;3.00;;;;;28.13;49.35;100950.16;5046588;28;45519;-80
2022/07/25 06:50:24;;;;;;;;;2.00;2.00;;;;;28.25;49.72;100949.66;5046214;28;52182;-81
2022/07/25 06:52:50;;;;;;;;;2.00;2.00;;;;;28.37;48.80;100947.25;5048682;28;45468;-81
2022/07/25 06:55:15;;;;;;;;;2.33;2.00;;;;;28.48;49.09;100943.97;5043348;28;45352;-80
2022/07/25 06:57:42;;;;;;;;;2.00;2.00;;;;;28.59;49.06;100947.22;5046865;28;45510;-79
2022/07/25 07:00:10;;;;;;;;;3.33;2.33;;;;;28.69;48.80;100955.91;5055071;28;46634;-79
2022/07/25 07:03:00;;;;;;;;;3.00;3.00;;;;;28.81;48.93;100953.47;5064509;28;45455;-79
2022/07/25 07:05:28;;;;;;;;;2.00;2.00;;;;;28.90;48.68;100962.41;5062566;27;45566;-79
2022/07/25 07:07:53;;;;;;;;;3.00;3.00;;;;;28.97;47.99;100963.28;5067113;28;45482;-82
2022/07/25 07:10:20;;;;;;;;;4.33;3.00;;;;;29.04;48.37;100969.63;5063250;28;45601;-81
2022/07/25 07:12:46;;;;;;;;;1.67;1.67;;;;;29.12;47.68;100978.69;5051659;28;45794;-79
2022/07/25 07:15:12;;;;;;;;;4.00;3.00;;;;;29.15;47.43;100975.56;5054156;28;45538;-79
2022/07/25 07:17:37;;;;;;;;;3.67;3.67;;;;;29.14;46.54;100980.19;5055503;28;45729;-80
2022/07/25 07:20:05;;;;;;;;;3.67;2.00;;;;;29.17;46.16;100989.88;5049478;28;45380;-80
2022/07/25 07:22:31;;;;;;;;;4.00;4.00;;;;;29.15;46.21;100992.81;5050549;28;45479;-81
2022/07/25 07:24:56;;;;;;;;;3.00;3.00;;;;;29.13;45.68;100989.44;5052615;28;45479;-81
2022/07/25 07:27:25;;;;;;;;;4.67;3.00;;;;;29.16;45.81;100999.97;5049953;28;45755;-81
2022/07/25 07:29:50;;;;;;;;;3.00;3.00;;;;;29.16;45.23;100983.59;5051542;28;47445;-81
2022/07/25 07:32:15;;;;;;;;;1.00;1.00;;;;;29.17;45.46;100992.59;5049055;28;45530;-80
2022/07/25 07:34:41;;;;;;;;;6.67;5.00;;;;;29.18;45.35;100997.88;5055378;28;45472;-80
2022/07/25 07:37:06;;;;;;;;;2.67;2.67;;;;;29.15;45.18;100992.81;5044390;28;45460;-81
2022/07/25 07:39:31;;;;;;;;;2.00;2.00;;;;;29.16;44.55;100997.25;5051982;28;53128;-82
2022/07/25 07:41:57;;;;;;;;;3.33;3.00;;;;;29.16;43.83;100993.66;5049231;28;50690;-82
2022/07/25 07:44:22;;;;;;;;;3.00;3.00;;;;;29.13;44.08;100996.78;5052541;28;45999;-82
2022/07/25 07:46:48;;;;;;;;;4.33;4.33;;;;;29.14;43.87;101004.78;5047428;28;45433;-79
2022/07/25 07:49:13;;;;;;;;;2.00;2.00;;;;;29.15;43.44;101001.03;5049599;28;45822;-80
2022/07/25 07:51:38;;;;;;;;;1.00;1.00;;;;;29.14;43.75;100998.50;5049338;28;45627;-80
2022/07/25 07:56:48;;;;;;;;;3.33;3.33;;;;;29.10;43.43;101014.41;5051042;28;45393;-80
2022/07/25 07:59:14;;;;;;;;;4.00;4.00;;;;;29.08;43.68;101000.13;5051472;28;46058;-82
2022/07/25 08:01:39;;;;;;;;;3.33;3.33;;;;;29.03;43.06;101010.81;5051933;28;45420;-81
2022/07/25 08:04:04;;;;;;;;;1.67;1.67;;;;;29.04;43.79;101016.09;5047930;28;53387;-81
2022/07/25 08:06:30;;;;;;;;;1.67;1.67;;;;;29.06;43.50;101016.72;5052582;28;45392;-81
2022/07/25 08:08:55;;;;;;;;;4.00;4.00;;;;;29.05;43.63;101012.31;5053252;28;45542;-82
2022/07/25 08:11:20;;;;;;;;;2.00;2.00;;;;;29.09;43.23;101028.31;5052809;28;45535;-81
2022/07/25 08:13:45;;;;;;;;;3.00;2.67;;;;;29.10;43.20;101019.88;5052383;28;45325;-81
2022/07/25 08:16:12;;;;;;;;;2.00;2.00;;;;;29.12;42.80;101020.53;5051607;28;46750;-82
2022/07/25 08:18:38;;;;;;;;;1.33;1.00;;;;;29.17;42.91;101017.19;5052340;28;45556;-81
2022/07/25 08:21:05;;;;;;;;;3.00;3.00;;;;;29.19;43.31;101031.53;5050658;28;45653;-80
2022/07/25 08:23:33;;;;;;;;;3.33;3.33;;;;;29.21;42.74;101029.44;5045747;28;45664;-80
2022/07/25 08:26:00;;;;;;;;;2.00;2.00;;;;;29.23;42.88;101031.97;5050090;28;45508;-80
2022/07/25 08:28:25;;;;;;;;;4.00;3.00;;;;;29.21;42.57;101028.59;5049040;28;46342;-79
2022/07/25 08:30:51;;;;;;;;;2.00;2.00;;;;;29.19;42.68;101029.63;5050310;28;45642;-80
2022/07/25 08:33:17;;;;;;;;;3.33;3.33;;;;;29.25;42.86;101033.44;5047000;28;46340;-79
2022/07/25 08:35:53;;;;;;;;;3.67;3.67;;;;;29.27;42.58;101042.31;5043091;28;45510;-77
2022/07/25 08:38:20;;;;;;;;;2.00;2.00;;;;;29.35;42.74;101045.91;5048772;28;45870;-81
2022/07/25 08:40:46;;;;;;;;;2.00;2.00;;;;;29.37;42.21;101043.81;5046658;28;45913;-80
2022/07/25 08:43:13;;;;;;;;;3.67;3.67;;;;;29.39;41.86;101053.50;5040098;28;46145;-80
2022/07/25 08:45:48;;;;;;;;;3.00;3.00;;;;;29.42;42.48;101052.28;5047383;28;45554;-80
2022/07/25 08:48:16;;;;;;;;;2.67;2.00;;;;;29.44;42.43;101044.72;5045441;28;45642;-80
2022/07/25 08:50:43;;;;;;;;;2.33;2.33;;;;;29.46;42.32;101046.19;5050233;28;45499;-79
2022/07/25 08:53:09;;;;;;;;;2.67;2.67;;;;;29.46;42.21;101045.34;5043109;28;46874;-80
2022/07/25 08:55:34;;;;;;;;;1.33;1.33;;;;;29.46;42.30;101046.19;5050486;28;45885;-79
2022/07/25 08:57:59;;;;;;;;;5.00;3.00;;;;;29.49;42.04;101035.88;5051309;28;46104;-79
2022/07/25 09:00:30;;;;;;;;;4.00;4.00;;;;;29.50;41.98;101046.66;5046479;28;45570;-79
2022/07/25 09:03:01;;;;;;;;;3.67;3.00;;;;;29.52;41.75;101041.00;5054355;28;45627;-80
2022/07/25 09:05:29;;;;;;;;;3.00;2.00;;;;;29.58;41.95;101045.66;5034425;28;45487;-79
2022/07/25 09:07:55;;;;;;;;;3.00;3.00;;;;;29.61;41.75;101047.13;5043632;28;46130;-80
2022/07/25 09:10:25;;;;;;;;;2.67;2.67;;;;;29.65;41.90;101053.88;5045402;28;45547;-81
2022/07/25 09:12:55;;;;;;;;;2.00;2.00;;;;;29.65;41.50;101057.47;5043818;28;45548;-80
2022/07/25 09:15:23;;;;;;;;;5.00;3.00;;;;;29.67;41.31;101060.84;5045379;28;45667;-79
2022/07/25 09:17:50;;;;;;;;;2.33;2.33;;;;;29.71;41.38;101066.78;5044593;28;46106;-79
2022/07/25 09:20:15;;;;;;;;;4.67;4.67;;;;;29.72;40.85;101066.53;5042762;28;45529;-81
2022/07/25 09:22:44;;;;;;;;;2.33;2.00;;;;;29.74;41.13;101066.34;5040555;28;45619;-80
2022/07/25 09:25:26;;;;;;;;;2.00;2.00;;;;;29.75;40.67;101078.97;5038509;28;45512;-82
2022/07/25 09:27:51;;;;;;;;;2.33;2.33;;;;;29.77;41.29;101073.31;5042620;28;45620;-83
2022/07/25 09:30:17;;;;;;;;;3.00;3.00;;;;;29.79;41.14;101073.97;5022183;28;45612;-81
2022/07/25 09:32:43;;;;;;;;;3.00;3.00;;;;;29.81;41.15;101072.72;5042716;28;45662;-82
2022/07/25 09:35:08;;;;;;;;;3.00;3.00;;;;;29.83;40.93;101078.81;5040532;28;45562;-81
2022/07/25 09:37:34;;;;;;;;;3.00;3.00;;;;;29.81;41.24;101069.13;5040801;28;45701;-83
2022/07/25 09:39:59;;;;;;;;;2.00;2.00;;;;;29.83;40.85;101067.84;5044406;28;46135;-83
2022/07/25 09:42:31;;;;;;;;;2.67;2.67;;;;;29.87;41.07;101073.75;5043341;28;45840;-82
2022/07/25 09:45:02;;;;;;;;;2.00;2.00;;;;;29.87;40.83;101081.97;5042003;28;47351;-81
2022/07/25 09:47:29;;;;;;;;;5.00;3.00;;;;;29.89;41.16;101079.03;5040068;28;46119;-83
2022/07/25 09:49:55;;;;;;;;;3.33;2.33;;;;;29.88;40.86;101082.81;5042009;28;46046;-80
2022/07/25 09:52:21;;;;;;;;;4.00;2.33;;;;;29.91;41.22;101090.63;5038455;28;45592;-80
2022/07/25 09:54:46;;;;;;;;;4.00;2.33;;;;;29.89;41.19;101093.56;5023310;28;47115;-80
2022/07/25 09:57:12;;;;;;;;;2.67;2.67;;;;;29.90;40.90;101091.66;5044410;28;47113;-80
2022/07/25 09:59:38;;;;;;;;;2.00;2.00;;;;;29.89;41.14;101089.97;5030240;28;46110;-79
2022/07/25 10:02:16;;;;;;;;;2.00;2.00;;;;;29.90;40.99;101086.19;5029394;28;46051;-82
2022/07/25 10:04:50;;;;;;;;;3.00;3.00;;;;;29.90;40.82;101089.78;5031902;28;45962;-85
2022/07/25 10:07:19;;;;;;;;;2.67;2.67;;;;;29.89;40.54;101088.09;5040346;28;46187;-82
2022/07/25 10:09:47;;;;;;;;;3.67;3.67;;;;;29.91;40.58;101086.00;5044102;28;45842;-84
2022/07/25 10:12:17;;;;;;;;;5.00;3.33;;;;;29.92;40.97;101089.59;5040516;28;45564;-84
2022/07/25 10:15:03;;;;;;;;;4.00;4.00;;;;;29.95;40.71;101086.41;5040826;28;45582;-83
2022/07/25 10:17:28;;;;;;;;;5.00;2.33;;;;;29.97;40.78;101085.19;5030563;28;46683;-82
2022/07/25 10:19:54;;;;;;;;;3.67;3.67;;;;;29.98;40.40;101078.66;5039504;28;45827;-82
2022/07/25 10:22:19;;;;;;;;;3.00;3.00;;;;;30.00;40.33;101080.34;5037603;28;45800;-81
2022/07/25 10:24:46;;;;;;;;;2.67;2.33;;;;;30.02;40.60;101084.56;5039507;28;46279;-79
2022/07/25 10:27:19;;;;;;;;;4.00;4.00;;;;;30.02;40.03;101089.19;5042825;28;46126;-81
2022/07/25 10:29:51;;;;;;;;;3.00;3.00;;;;;30.03;40.92;101080.78;5039427;28;47392;-83
2022/07/25 10:32:16;;;;;;;;;3.67;3.67;;;;;30.04;40.33;101079.72;5041307;28;45511;-83
2022/07/25 10:34:51;;;;;;;;;2.00;2.00;;;;;30.06;40.18;101079.53;5038974;28;45603;-82
2022/07/25 10:37:17;;;;;;;;;2.00;2.00;;;;;30.09;40.87;101088.16;5025456;28;48562;-82
2022/07/25 10:39:44;;;;;;;;;1.67;1.67;;;;;30.11;40.72;101094.31;5047123;28;45448;-83
2022/07/25 10:42:20;;;;;;;;;2.00;2.00;;;;;30.14;40.40;101089.47;5046497;28;45546;-82
2022/07/25 10:44:53;;;;;;;;;3.00;3.00;;;;;30.13;40.20;101090.53;5033985;28;45800;-83
2022/07/25 10:47:26;;;;;;;;;2.67;2.67;;;;;30.11;39.93;101094.31;5039610;28;45784;-80
2022/07/25 10:49:58;;;;;;;;;2.67;2.67;;;;;30.14;40.38;101092.22;5044155;28;45600;-84
2022/07/25 10:52:27;;;;;;;;;3.67;3.00;;;;;30.13;39.84;101099.59;5050501;28;45499;-83
2022/07/25 10:54:58;;;;;;;;;3.67;3.67;;;;;30.13;40.23;101102.34;5048135;28;45563;-84
2022/07/25 10:57:23;;;;;;;;;3.00;3.00;;;;;30.10;39.87;101103.56;5052277;28;46403;-83
2022/07/25 10:59:49;;;;;;;;;4.00;4.00;;;;;30.09;40.16;101101.00;5051655;28;45628;-84
2022/07/25 11:02:15;;;;;;;;;1.00;1.00;;;;;30.08;40.46;101100.16;5054913;28;45805;-83
2022/07/25 11:04:56;;;;;;;;;3.00;3.00;;;;;30.07;40.16;101109.44;5053843;28;45333;-84
2022/07/25 11:07:21;;;;;;;;;3.00;3.00;;;;;30.06;40.01;101106.88;5053713;28;45554;-84
2022/07/25 11:09:59;;;;;;;;;2.33;2.00;;;;;30.06;40.20;101113.22;5053201;28;52856;-84
2022/07/25 11:12:24;;;;;;;;;1.67;1.67;;;;;30.02;40.66;101102.88;5050905;28;45590;-84
2022/07/25 11:14:50;;;;;;;;;2.00;2.00;;;;;30.01;40.32;101115.72;5051909;28;45701;-84
2022/07/25 11:17:19;;;;;;;;;2.00;2.00;;;;;30.01;40.50;101117.59;5054878;28;46110;-85
2022/07/25 11:19:58;;;;;;;;;2.33;2.00;;;;;30.01;40.57;101112.13;5049466;28;45405;-83
2022/07/25 11:22:25;;;;;;;;;4.33;3.00;;;;;29.96;41.36;101105.38;5052738;28;45490;-81
2022/07/25 11:24:50;;;;;;;;;3.00;3.00;;;;;30.02;41.09;101114.66;5054413;28;45484;-80
2022/07/25 11:27:26;;;;;;;;;5.67;3.00;;;;;30.05;41.44;101113.41;5056154;28;46203;-82
2022/07/25 11:30:04;;;;;;;;;3.67;2.00;;;;;30.09;41.29;101112.78;5056173;28;45860;-82
2022/07/25 11:32:38;;;;;;;;;3.33;2.67;;;;;30.14;41.33;101108.63;5051086;28;45548;-81
2022/07/25 11:35:04;;;;;;;;;6.67;3.33;;;;;30.18;41.36;101120.88;5045786;28;45653;-80
2022/07/25 11:37:34;;;;;;;;;3.00;1.33;;;;;30.20;41.38;101111.41;5042070;28;47502;-80
2022/07/25 11:39:59;;;;;;;;;4.00;2.33;;;;;30.24;41.18;101112.69;5054238;28;45513;-79
2022/07/25 11:42:26;;;;;;;;;1.33;1.33;;;;;30.27;41.41;101125.09;5049499;28;45578;-81
2022/07/25 11:44:52;;;;;;;;;3.67;2.33;;;;;30.26;41.30;101114.34;5049122;28;45549;-84
2022/07/25 11:47:31;;;;;;;;;2.00;2.00;;;;;30.29;41.54;101109.34;5054749;28;46441;-81
2022/07/25 11:50:00;;;;;;;;;2.00;2.00;;;;;30.29;41.05;101122.16;5051283;28;45921;-82
2022/07/25 11:52:34;;;;;;;;;2.33;1.67;;;;;30.28;40.63;101120.50;5051326;28;45547;-83
2022/07/25 11:55:02;;;;;;;;;1.33;1.33;;;;;30.27;41.32;101119.63;5051583;28;46113;-80
2022/07/25 11:57:31;;;;;;;;;4.67;2.67;;;;;30.27;40.54;101127.84;5050020;28;45506;-85
2022/07/25 11:59:59;;;;;;;;;3.33;3.33;;;;;30.06;40.67;101120.56;5046230;28;47449;-80
2022/07/25 12:02:27;;;;;;;;;3.00;1.00;;;;;29.80;40.97;101111.19;5052016;28;45547;-82
2022/07/25 12:05:13;;;;;;;;;2.33;1.33;;;;;29.53;41.28;101105.56;5046575;28;45741;-81
2022/07/25 12:07:51;;;;;;;;;4.00;3.00;;;;;29.34;41.89;101107.94;5046413;28;46580;-82
2022/07/25 12:10:34;;;;;;;;;1.00;1.00;;;;;29.19;41.99;101097.13;5049766;28;45857;-87
2022/07/25 12:13:01;;;;;;;;;2.00;2.00;;;;;29.10;42.18;101106.50;5049037;28;45893;-78
2022/07/25 12:15:31;;;;;;;;;3.67;2.00;;;;;29.03;42.55;101115.50;5051342;28;45590;-80
2022/07/25 12:17:57;;;;;;;;;1.33;1.33;;;;;28.96;42.01;101111.84;5047273;28;45608;-79
2022/07/25 12:20:25;;;;;;;;;2.00;2.00;;;;;28.90;42.10;101102.53;5045369;28;46816;-81
2022/07/25 12:22:52;;;;;;;;;1.67;1.67;;;;;28.87;42.10;101102.94;5048022;28;45546;-78
2022/07/25 12:25:18;;;;;;;;;1.67;1.00;;;;;28.83;42.75;101107.09;5050927;28;45586;-80
2022/07/25 12:27:44;;;;;;;;;3.00;3.00;;;;;28.78;43.11;101095.91;5047241;28;47000;-82
2022/07/25 12:30:11;;;;;;;;;3.33;3.33;;;;;28.74;43.33;101091.88;5044898;28;46572;-78
2022/07/25 12:32:36;;;;;;;;;5.00;4.00;;;;;28.67;44.38;101073.53;5042930;28;45561;-81
2022/07/25 12:35:04;;;;;;;;;1.67;1.67;;;;;28.69;44.15;101083.41;5046320;28;45499;-83
2022/07/25 12:37:29;;;;;;;;;4.00;4.00;;;;;28.66;44.09;101090.13;5047205;28;45435;-88
2022/07/25 12:39:55;;;;;;;;;7.00;3.00;;;;;28.65;44.43;101086.53;5051060;28;46207;-86
2022/07/25 12:42:20;;;;;;;;;5.00;4.00;;;;;28.64;44.48;101092.19;5050792;28;45920;-87
2022/07/25 12:44:45;;;;;;;;;3.00;3.00;;;;;28.66;44.28;101087.38;5046311;28;45717;-83
2022/07/25 12:47:11;;;;;;;;;1.00;1.00;;;;;28.71;45.16;101094.97;5046297;28;45588;-87
2022/07/25 12:49:36;;;;;;;;;2.67;2.67;;;;;28.75;45.01;101091.69;5053281;28;45506;-83
2022/07/25 12:52:02;;;;;;;;;4.00;4.00;;;;;28.77;44.34;101089.59;5047479;28;45547;-84
2022/07/25 12:54:28;;;;;;;;;4.33;3.33;;;;;28.81;44.58;101090.03;5049148;28;45414;-86
2022/07/25 12:56:54;;;;;;;;;2.33;2.00;;;;;28.83;45.10;101084.38;5048600;28;46233;-89
2022/07/25 12:59:20;;;;;;;;;2.33;2.00;;;;;28.85;44.74;101085.03;5044455;28;45524;-84
2022/07/25 13:01:45;;;;;;;;;5.00;3.33;;;;;28.86;44.74;101084.00;5051402;28;45464;-84
2022/07/25 13:04:10;;;;;;;;;1.67;1.67;;;;;28.85;44.60;101085.03;5049682;28;45453;-85
2022/07/25 13:06:36;;;;;;;;;3.00;2.00;;;;;28.80;44.62;101075.53;5048098;28;46003;-82
2022/07/25 13:09:03;;;;;;;;;3.00;3.00;;;;;28.78;45.35;101063.94;5047777;28;45833;-86
2022/07/25 13:11:28;;;;;;;;;4.00;4.00;;;;;28.80;45.48;101067.34;5039090;28;45550;-85
2022/07/25 13:13:54;;;;;;;;;5.67;4.00;;;;;28.82;45.04;101069.03;5051877;28;45492;-83
2022/07/25 13:16:20;;;;;;;;;2.00;2.00;;;;;28.84;45.38;101070.53;5049992;28;45862;-85
2022/07/25 13:18:45;;;;;;;;;2.33;2.33;;;;;28.85;45.20;101061.28;5046251;28;45505;-85
2022/07/25 13:21:11;;;;;;;;;2.00;2.00;;;;;28.89;45.31;101067.25;5046339;28;45919;-84
2022/07/25 13:23:36;;;;;;;;;4.00;4.00;;;;;28.89;45.33;101075.44;5047558;28;46396;-83
2022/07/25 13:26:02;;;;;;;;;3.00;3.00;;;;;28.87;45.11;101055.63;5049911;28;45464;-83
2022/07/25 13:28:28;;;;;;;;;4.00;2.67;;;;;28.85;45.18;101083.13;5048365;28;44865;-84
2022/07/25 13:30:53;;;;;;;;;4.00;4.00;;;;;28.83;45.36;101067.97;5048075;28;45422;-84
2022/07/25 13:33:19;;;;;;;;;4.00;4.00;;;;;28.81;45.93;101079.09;5040774;28;45472;-83
2022/07/25 13:35:44;;;;;;;;;2.00;2.00;;;;;28.80;45.23;101072.81;5049339;28;45974;-83
2022/07/25 13:38:10;;;;;;;;;2.33;2.00;;;;;28.79;45.58;101064.81;5049227;28;45486;-82
2022/07/25 13:40:40;;;;;;;;;5.00;4.00;;;;;28.79;45.85;101062.94;5047597;28;45770;-80
2022/07/25 13:43:06;;;;;;;;;3.33;2.00;;;;;28.80;46.01;101061.03;5043158;28;45495;-81
2022/07/25 13:45:32;;;;;;;;;4.00;4.00;;;;;28.79;45.59;101071.13;5043518;28;46885;-82
2022/07/25 13:47:57;;;;;;;;;3.00;3.00;;;;;28.79;45.78;101073.00;5047703;28;45535;-78
2022/07/25 13:50:22;;;;;;;;;3.00;3.00;;;;;28.78;45.98;101066.69;5053124;28;45440;-77
2022/07/25 13:52:48;;;;;;;;;2.00;2.00;;;;;28.78;45.73;101076.78;5050309;28;46455;-85
2022/07/25 13:55:13;;;;;;;;;2.00;2.00;;;;;28.76;45.98;101063.31;5027329;28;46034;-82
2022/07/25 13:57:38;;;;;;;;;5.00;3.33;;;;;28.85;45.31;101063.19;5049917;28;45677;-78
2022/07/25 14:00:05;;;;;;;;;2.00;2.00;;;;;29.02;45.06;101059.13;5050016;28;45885;-76
2022/07/25 14:02:31;;;;;;;;;4.67;3.00;;;;;29.19;45.41;101076.09;5047483;28;45576;-80
2022/07/25 14:04:56;;;;;;;;;3.00;3.00;;;;;29.33;45.10;101084.38;5053235;28;45539;-93
2022/07/25 14:07:21;;;;;;;;;3.00;3.00;;;;;29.44;44.74;101072.91;5051774;28;45903;-89
2022/07/25 14:09:47;;;;;;;;;2.00;2.00;;;;;29.57;44.36;101065.84;5054192;28;45464;-89
2022/07/25 14:12:12;;;;;;;;;4.00;3.00;;;;;29.65;44.38;101064.81;5054499;28;46753;-89
2022/07/25 14:14:38;;;;;;;;;3.00;3.00;;;;;29.77;43.93;101059.63;5048992;28;46444;-88
2022/07/25 14:17:03;;;;;;;;;4.00;3.00;;;;;29.82;44.01;101057.97;5054004;28;45404;-88
2022/07/25 14:19:29;;;;;;;;;4.67;3.33;;;;;29.87;43.89;101062.81;5050603;28;45422;-88
2022/07/25 14:21:54;;;;;;;;;3.33;3.00;;;;;29.93;44.00;101059.28;5054262;28;45508;-88
2022/07/25 14:24:19;;;;;;;;;4.00;4.00;;;;;29.98;43.89;101058.66;5052625;28;45977;-82
2022/07/25 14:26:45;;;;;;;;;3.33;3.33;;;;;30.04;43.64;101060.56;5053020;28;45437;-89
2022/07/25 14:29:11;;;;;;;;;3.00;3.00;;;;;30.10;43.51;101058.91;5050108;28;45536;-92
2022/07/25 14:31:38;;;;;;;;;5.00;3.00;;;;;30.14;43.34;101064.84;5059925;28;45421;-89
2022/07/25 14:34:03;;;;;;;;;2.00;2.00;;;;;30.17;42.93;101064.44;5056031;28;45519;-90
2022/07/25 14:36:28;;;;;;;;;3.33;3.33;;;;;30.19;42.87;101060.44;5052822;28;45341;-89
2022/07/25 14:38:54;;;;;;;;;3.00;3.00;;;;;30.20;43.00;101064.03;5048554;28;45600;-87
2022/07/25 14:41:19;;;;;;;;;3.67;3.00;;;;;30.22;43.75;101056.44;5048822;28;45760;-83
2022/07/25 14:43:44;;;;;;;;;4.00;4.00;;;;;30.06;43.65;101060.38;5053715;28;45887;-84
2022/07/25 14:46:10;;;;;;;;;5.00;2.33;;;;;29.93;44.09;101058.44;5045927;28;45515;-87
2022/07/25 14:48:36;;;;;;;;;2.33;2.00;;;;;29.82;45.07;101055.25;5047020;28;45819;-88
2022/07/25 14:51:02;;;;;;;;;2.67;2.67;;;;;29.74;45.10;101049.94;5047710;28;45509;-92
2022/07/25 14:53:27;;;;;;;;;2.67;2.00;;;;;29.66;45.64;101044.63;5042422;28;45592;-92
2022/07/25 14:55:53;;;;;;;;;6.00;3.00;;;;;29.61;46.16;101047.97;5050535;28;45488;-95
2022/07/25 14:58:18;;;;;;;;;5.00;3.00;;;;;29.54;46.51;101047.09;5046849;28;47280;-89
2022/07/25 15:00:44;;;;;;;;;4.00;3.67;;;;;29.49;47.01;101035.88;5053273;28;45666;-90
2022/07/25 15:03:10;;;;;;;;;4.67;3.33;;;;;29.44;47.09;101050.19;5044992;28;46175;-87
2022/07/25 15:05:35;;;;;;;;;3.67;3.67;;;;;29.36;47.35;101044.84;5055151;28;45408;-88
2022/07/25 15:08:01;;;;;;;;;2.33;2.33;;;;;29.28;47.07;101046.72;5056162;28;45564;-88
2022/07/25 15:10:26;;;;;;;;;3.00;3.00;;;;;29.22;47.71;101035.75;5054824;28;45471;-91
2022/07/25 15:12:51;;;;;;;;;3.33;3.33;;;;;29.18;47.80;101048.97;5054172;28;46170;-87
2022/07/25 15:15:17;;;;;;;;;5.00;4.00;;;;;29.17;48.28;101050.00;5051033;28;45639;-88
2022/07/25 15:17:42;;;;;;;;;3.33;2.00;;;;;29.14;48.03;101050.41;5052904;28;45384;-93
2022/07/25 15:20:08;;;;;;;;;3.00;3.00;;;;;29.12;48.18;101052.47;5055180;28;45754;-94
2022/07/25 15:22:33;;;;;;;;;3.00;3.00;;;;;29.10;48.44;101052.69;5054577;28;46526;-95
2022/07/25 15:24:59;;;;;;;;;0.33;0.33;;;;;29.08;48.87;101048.47;5058533;28;45451;-88
2022/07/25 15:27:24;;;;;;;;;2.00;2.00;;;;;29.06;48.68;101044.03;5054749;28;45693;-94
2022/07/25 15:29:49;;;;;;;;;2.00;2.00;;;;;29.05;48.92;101041.50;5059218;28;45377;-95
2022/07/25 15:32:15;;;;;;;;;2.00;2.00;;;;;29.05;48.82;101045.09;5052359;28;45483;-84
2022/07/25 15:34:40;;;;;;;;;4.00;3.00;;;;;29.05;48.68;101049.69;5051523;28;45483;-84
2022/07/25 15:37:05;;;;;;;;;4.00;2.67;;;;;29.05;48.83;101042.34;5050215;28;45603;-86
2022/07/25 15:39:31;;;;;;;;;2.67;1.67;;;;;29.07;48.74;101055.81;5034171;28;45711;-87
2022/07/25 15:41:56;;;;;;;;;2.00;2.00;;;;;29.12;48.85;101056.06;5051344;28;50030;-86
2022/07/25 15:44:21;;;;;;;;;2.00;2.00;;;;;29.14;48.37;101042.22;5045401;28;45687;-88
2022/07/25 15:46:47;;;;;;;;;1.00;1.00;;;;;29.13;48.61;101044.09;5048860;28;47679;-92
2022/07/25 15:49:14;;;;;;;;;3.00;3.00;;;;;29.17;49.24;101055.47;5050874;28;45472;-92
2022/07/25 15:51:39;;;;;;;;;2.33;2.33;;;;;29.17;49.10;101042.66;5053244;28;46072;-91
2022/07/25 15:54:05;;;;;;;;;3.00;2.33;;;;;29.16;49.32;101043.69;5052730;28;45424;-93
2022/07/25 15:56:31;;;;;;;;;1.67;1.67;;;;;29.13;49.23;101044.09;5047743;28;46080;-92
2022/07/25 15:58:56;;;;;;;;;2.00;2.00;;;;;29.10;49.23;101028.09;5051075;28;45619;-95
2022/07/25 16:01:21;;;;;;;;;0.33;0.33;;;;;29.10;49.76;101030.00;5051007;28;45389;-94
2022/07/25 16:03:47;;;;;;;;;2.33;2.33;;;;;29.08;48.55;101046.56;5053371;28;46881;-86
2022/07/25 16:06:12;;;;;;;;;3.00;3.00;;;;;29.08;48.15;101052.03;5051937;28;45549;-92
2022/07/25 16:08:37;;;;;;;;;3.00;3.00;;;;;29.03;46.80;101049.94;5048202;28;45518;-86
2022/07/25 16:11:03;;;;;;;;;3.00;3.00;;;;;29.00;47.08;101041.25;5044169;28;46368;-85
2022/07/25 16:13:29;;;;;;;;;4.00;3.00;;;;;28.97;47.46;101044.41;5047807;28;46932;-84
2022/07/25 16:15:55;;;;;;;;;3.00;3.00;;;;;28.97;48.09;101050.69;5050948;28;45763;-84
2022/07/25 16:18:20;;;;;;;;;3.33;3.00;;;;;28.95;48.18;101041.88;5043642;28;45542;-84
2022/07/25 16:20:46;;;;;;;;;2.67;2.67;;;;;28.99;48.07;101051.34;5048488;28;45526;-82
2022/07/25 16:23:12;;;;;;;;;2.00;2.00;;;;;29.04;48.57;101059.81;5053258;28;45429;-85
2022/07/25 16:25:38;;;;;;;;;3.00;3.00;;;;;29.08;48.09;101062.13;5046976;28;45579;-83
2022/07/25 16:28:05;;;;;;;;;2.00;2.00;;;;;29.11;48.26;101067.19;5048820;28;45576;-81
2022/07/25 16:30:31;;;;;;;;;3.00;2.33;;;;;29.14;48.41;101056.72;5050709;28;46244;-84
2022/07/25 16:32:56;;;;;;;;;1.67;1.67;;;;;29.17;47.97;101059.06;5042995;28;46083;-84
2022/07/25 16:35:22;;;;;;;;;3.00;1.67;;;;;29.21;48.02;101061.41;5051231;28;45448;-85
2022/07/25 16:37:47;;;;;;;;;2.00;2.00;;;;;29.24;48.32;101058.25;5049805;28;45692;-80
2022/07/25 16:40:13;;;;;;;;;3.00;3.00;;;;;29.21;47.70;101064.13;5052018;28;46020;-80
2022/07/25 16:42:38;;;;;;;;;2.00;2.00;;;;;29.18;48.46;101063.47;5043912;28;45532;-80
2022/07/25 16:45:05;;;;;;;;;3.00;1.67;;;;;29.15;48.29;101063.88;5045916;28;45441;-79
2022/07/25 16:47:30;;;;;;;;;3.00;3.00;;;;;29.15;48.56;101054.81;5031149;28;45656;-81
2022/07/25 16:49:55;;;;;;;;;10.00;4.00;;;;;29.13;46.94;101073.28;5048692;28;46285;-85
2022/07/25 16:52:21;;;;;;;;;3.00;3.00;;;;;29.11;47.50;101072.66;5051548;28;45369;-84
2022/07/25 16:54:47;;;;;;;;;4.67;4.00;;;;;29.11;47.05;101076.25;5046358;28;45483;-80
2022/07/25 16:57:12;;;;;;;;;6.00;6.00;;;;;29.12;47.43;101077.06;5044301;28;47696;-80
2022/07/25 16:59:37;;;;;;;;;3.33;3.00;;;;;29.13;47.81;101076.03;5049489;28;47181;-79
2022/07/25 17:02:03;;;;;;;;;4.00;2.67;;;;;29.15;48.05;101091.22;5048964;28;45340;-85
2022/07/25 17:04:28;;;;;;;;;5.00;4.67;;;;;29.17;47.80;101083.66;5050611;28;45527;-79
2022/07/25 17:06:54;;;;;;;;;6.33;4.67;;;;;29.23;45.93;101083.91;5047551;28;45857;-81
2022/07/25 17:09:20;;;;;;;;;2.00;2.00;;;;;29.28;41.83;101086.88;5044342;28;45470;-79
2022/07/25 17:11:46;;;;;;;;;4.00;4.00;;;;;29.38;40.57;101081.88;5044746;28;47406;-83
2022/07/25 17:14:11;;;;;;;;;4.00;4.00;;;;;29.47;39.91;101079.88;5048740;28;45709;-84
2022/07/25 17:16:36;;;;;;;;;13.00;12.00;;;;;29.62;40.26;101087.94;5052227;28;45428;-84
2022/07/25 17:19:02;;;;;;;;;14.33;13.00;;;;;29.73;40.95;101092.00;5046065;28;45424;-86
2022/07/25 17:21:27;;;;;;;;;7.67;7.67;;;;;29.78;39.24;101091.41;5050796;28;45448;-88
2022/07/25 17:23:53;;;;;;;;;11.33;10.00;;;;;29.81;40.15;101094.59;5052173;28;45545;-82
2022/07/25 17:26:19;;;;;;;;;5.67;5.67;;;;;29.80;39.08;101092.06;5052864;28;45497;-81